Time;durP1;ratioP1;P1;durP2;ratioP2;P2;SDS_P1;SDS_P2;PMS_P1;PMS_P2;Temp;Humidity;BMP_temperature;BMP_pressure;BME280_temperature;BME280_humidity;BME280_pressure;Samples;Min_cycle;Max_cycle;Signal;HPM_P1;HPM_P2
2021/11/26 00:01:32;;;;;;;;;;;23.20;52.40;;;;;;1577688;74;758;-59
2021/11/26 00:03:34;;;;;;;;;;;23.20;52.40;;;;;;1566675;74;1943;-60
2021/11/26 00:05:36;;;;;;;;;;;23.20;52.50;;;;;;1563615;74;1139;-59
2021/11/26 00:07:38;;;;;;;;;;;23.20;52.40;;;;;;1574563;74;847;-59
2021/11/26 00:09:40;;;;;;;;;;;23.20;52.30;;;;;;1579410;74;1085;-59
2021/11/26 00:11:41;;;;;;;;;;;23.30;52.40;;;;;;1569194;74;780;-59
2021/11/26 00:13:48;;;;;;;;;;;23.20;52.30;;;;;;1581290;74;776;-60
2021/11/26 00:15:47;;;;;;;;;;;23.30;52.30;;;;;;1571176;74;1689;-59
2021/11/26 00:17:51;;;;;;;;;;;23.20;52.20;;;;;;1582848;74;717;-59
2021/11/26 00:19:52;;;;;;;;;;;23.20;52.10;;;;;;1587284;74;1629;-59
2021/11/26 00:21:55;;;;;;;;;;;23.30;52.30;;;;;;1581439;74;694;-59
2021/11/26 00:23:56;;;;;;;;;;;23.30;52.30;;;;;;1590699;74;1922;-59
2021/11/26 00:25:58;;;;;;;;;;;23.30;52.20;;;;;;1574768;74;1146;-59
2021/11/26 00:28:00;;;;;;;;;;;23.30;52.20;;;;;;1587789;74;732;-59
2021/11/26 00:30:03;;;;;;;;;;;23.20;52.10;;;;;;1585335;74;698;-59
2021/11/26 00:32:05;;;;;;;;;;;23.30;52.30;;;;;;1583972;74;754;-59
2021/11/26 00:34:07;;;;;;;;;;;23.20;52.30;;;;;;1566527;74;751;-59
2021/11/26 00:36:09;;;;;;;;;;;23.20;52.30;;;;;;1574790;74;1198;-59
2021/11/26 00:38:11;;;;;;;;;;;23.30;52.40;;;;;;1580767;74;656;-58
2021/11/26 00:40:12;;;;;;;;;;;23.30;52.40;;;;;;1576409;74;662;-59
2021/11/26 00:42:14;;;;;;;;;;;23.30;52.50;;;;;;1574638;74;692;-59
2021/11/26 00:44:16;;;;;;;;;;;23.30;52.40;;;;;;1579473;74;1942;-58
2021/11/26 00:46:18;;;;;;;;;;;23.30;52.40;;;;;;1576554;74;1164;-60
2021/11/26 00:48:20;;;;;;;;;;;23.30;52.50;;;;;;1580181;74;733;-60
2021/11/26 00:50:22;;;;;;;;;;;23.30;52.50;;;;;;1582755;74;673;-59
2021/11/26 00:52:24;;;;;;;;;;;23.30;52.50;;;;;;1589631;74;771;-59
2021/11/26 00:54:26;;;;;;;;;;;23.30;52.60;;;;;;1570626;74;789;-59
2021/11/26 00:56:28;;;;;;;;;;;23.30;52.50;;;;;;1581587;74;1125;-59
2021/11/26 00:58:30;;;;;;;;;;;23.20;52.40;;;;;;1587733;74;730;-59
2021/11/26 01:00:32;;;;;;;;;;;23.30;52.50;;;;;;1578925;74;726;-59
2021/11/26 01:02:33;;;;;;;;;;;23.30;52.60;;;;;;1583606;74;767;-59
2021/11/26 01:04:35;;;;;;;;;;;23.20;52.40;;;;;;1583001;74;1937;-59
2021/11/26 01:06:37;;;;;;;;;;;23.30;52.50;;;;;;1581430;74;1131;-59
2021/11/26 01:08:39;;;;;;;;;;;23.30;52.40;;;;;;1572998;74;1084;-59
2021/11/26 01:10:41;;;;;;;;;;;23.20;52.40;;;;;;1570877;74;896;-59
2021/11/26 01:12:43;;;;;;;;;;;23.30;52.50;;;;;;1578941;74;823;-60
2021/11/26 01:14:45;;;;;;;;;;;23.30;52.50;;;;;;1571715;74;754;-59
2021/11/26 01:16:47;;;;;;;;;;;23.30;52.60;;;;;;1575320;74;1189;-60
2021/11/26 01:18:49;;;;;;;;;;;23.20;52.60;;;;;;1586738;74;688;-60
2021/11/26 01:20:51;;;;;;;;;;;23.20;52.60;;;;;;1573079;74;710;-59
2021/11/26 01:22:53;;;;;;;;;;;23.20;52.60;;;;;;1571895;74;781;-60
2021/11/26 01:24:55;;;;;;;;;;;23.30;52.70;;;;;;1573470;74;1934;-59
2021/11/26 01:26:58;;;;;;;;;;;23.20;52.70;;;;;;1576672;74;1148;-59
2021/11/26 01:29:00;;;;;;;;;;;23.20;52.70;;;;;;1579430;74;1974;-58
2021/11/26 01:31:02;;;;;;;;;;;23.20;52.70;;;;;;1570838;74;737;-60
2021/11/26 01:33:06;;;;;;;;;;;23.30;52.70;;;;;;1577759;74;806;-59
2021/11/26 01:35:08;;;;;;;;;;;23.20;52.70;;;;;;1574020;74;749;-58
2021/11/26 01:37:10;;;;;;;;;;;23.20;52.80;;;;;;1579953;74;1096;-58
2021/11/26 01:39:12;;;;;;;;;;;23.20;52.90;;;;;;1582980;74;852;-59
2021/11/26 01:41:14;;;;;;;;;;;23.20;52.90;;;;;;1583617;74;746;-59
2021/11/26 01:43:17;;;;;;;;;;;23.20;52.90;;;;;;1586977;74;760;-58
2021/11/26 01:45:19;;;;;;;;;;;23.20;52.90;;;;;;1576259;74;746;-59
2021/11/26 01:47:20;;;;;;;;;;;23.20;53.00;;;;;;1558384;74;1236;-58
2021/11/26 01:49:22;;;;;;;;;;;23.30;52.90;;;;;;1563694;75;770;-58
2021/11/26 01:51:24;;;;;;;;;;;23.30;53.00;;;;;;1554645;74;759;-58
2021/11/26 01:53:26;;;;;;;;;;;23.20;52.90;;;;;;1564060;74;712;-58
2021/11/26 01:55:28;;;;;;;;;;;23.20;52.80;;;;;;1557527;74;692;-58
2021/11/26 01:57:30;;;;;;;;;;;23.20;52.90;;;;;;1566767;75;1177;-60
2021/11/26 01:59:32;;;;;;;;;;;23.20;52.90;;;;;;1555439;75;761;-58
2021/11/26 02:01:33;;;;;;;;;;;23.20;52.80;;;;;;1566040;74;763;-59
2021/11/26 02:03:35;;;;;;;;;;;23.20;53.00;;;;;;1565904;74;1947;-59
2021/11/26 02:05:37;;;;;;;;;;;23.30;53.10;;;;;;1567224;74;1125;-59
2021/11/26 02:07:39;;;;;;;;;;;23.20;53.10;;;;;;1566158;75;756;-58
2021/11/26 02:09:41;;;;;;;;;;;23.30;53.10;;;;;;1551373;74;1114;-60
2021/11/26 02:11:43;;;;;;;;;;;23.30;53.10;;;;;;1563560;75;694;-59
2021/11/26 02:13:45;;;;;;;;;;;23.20;53.10;;;;;;1555624;74;687;-59
2021/11/26 02:15:47;;;;;;;;;;;23.30;53.10;;;;;;1552903;74;1202;-58
2021/11/26 02:17:49;;;;;;;;;;;23.30;53.10;;;;;;1536700;74;793;-58
2021/11/26 02:19:51;;;;;;;;;;;23.30;53.10;;;;;;1550833;75;793;-58
2021/11/26 02:21:54;;;;;;;;;;;23.30;53.00;;;;;;1557986;74;703;-59
2021/11/26 02:23:55;;;;;;;;;;;23.20;52.90;;;;;;1552911;74;1913;-58
2021/11/26 02:25:57;;;;;;;;;;;23.30;53.00;;;;;;1550738;74;1251;-59
2021/11/26 02:28:01;;;;;;;;;;;23.30;53.00;;;;;;1542553;74;655;-60
2021/11/26 02:30:14;;;;;;;;;;;23.20;52.90;;;;;;1550437;74;717;-59
2021/11/26 02:32:16;;;;;;;;;;;23.20;52.90;;;;;;1543695;74;702;-59
2021/11/26 02:34:18;;;;;;;;;;;23.20;52.90;;;;;;1561121;74;725;-59
2021/11/26 02:36:20;;;;;;;;;;;23.20;53.00;;;;;;1563414;75;1155;-59
2021/11/26 02:38:23;;;;;;;;;;;23.20;52.90;;;;;;1559536;74;752;-58
2021/11/26 02:40:26;;;;;;;;;;;23.20;52.90;;;;;;1569271;75;811;-58
2021/11/26 02:42:27;;;;;;;;;;;23.20;53.00;;;;;;1567480;74;801;-60
2021/11/26 02:44:29;;;;;;;;;;;23.20;52.90;;;;;;1553907;74;1925;-58
2021/11/26 02:46:31;;;;;;;;;;;23.20;52.90;;;;;;1561617;74;1195;-60
2021/11/26 02:48:33;;;;;;;;;;;23.20;52.90;;;;;;1557011;74;780;-58
2021/11/26 02:50:35;;;;;;;;;;;23.30;53.00;;;;;;1557868;74;795;-58
2021/11/26 02:52:37;;;;;;;;;;;23.20;53.00;;;;;;1554957;74;670;-59
2021/11/26 02:54:39;;;;;;;;;;;23.20;52.90;;;;;;1551592;74;801;-59
2021/11/26 02:56:41;;;;;;;;;;;23.20;52.90;;;;;;1551681;75;1140;-58
2021/11/26 02:58:43;;;;;;;;;;;23.30;52.90;;;;;;1539203;74;819;-59
2021/11/26 03:00:46;;;;;;;;;;;23.20;52.90;;;;;;1550439;74;776;-59
2021/11/26 03:02:48;;;;;;;;;;;23.20;52.80;;;;;;1549904;74;734;-60
2021/11/26 03:04:50;;;;;;;;;;;23.20;52.80;;;;;;1560175;74;1908;-58
2021/11/26 03:07:07;;;;;;;;;;;23.20;52.80;;;;;;1559064;74;1149;-58
2021/11/26 03:09:09;;;;;;;;;;;23.30;52.90;;;;;;1563140;74;684;-59
2021/11/26 03:11:11;;;;;;;;;;;23.20;52.80;;;;;;1540349;74;1063;-59
2021/11/26 03:13:13;;;;;;;;;;;23.20;52.80;;;;;;1533289;76;738;-60
2021/11/26 03:15:15;;;;;;;;;;;23.20;52.90;;;;;;1540303;75;692;-58
2021/11/26 03:17:17;;;;;;;;;;;23.20;53.00;;;;;;1548762;76;1182;-59
2021/11/26 03:19:19;;;;;;;;;;;23.20;53.00;;;;;;1535528;74;681;-61
2021/11/26 03:21:20;;;;;;;;;;;23.20;53.10;;;;;;1555543;74;770;-58
2021/11/26 03:23:22;;;;;;;;;;;23.20;53.10;;;;;;1549528;75;763;-59
2021/11/26 03:25:25;;;;;;;;;;;23.20;53.10;;;;;;1563968;74;1931;-59
2021/11/26 03:27:26;;;;;;;;;;;23.20;53.10;;;;;;1535221;74;1125;-59
2021/11/26 03:29:28;;;;;;;;;;;23.20;53.10;;;;;;1545342;74;772;-59
2021/11/26 03:31:30;;;;;;;;;;;23.20;53.10;;;;;;1546229;76;797;-59
2021/11/26 03:33:32;;;;;;;;;;;23.20;53.10;;;;;;1545905;75;683;-59
2021/11/26 03:35:34;;;;;;;;;;;23.20;53.10;;;;;;1553196;76;1140;-58
2021/11/26 03:37:36;;;;;;;;;;;23.20;53.10;;;;;;1548468;74;739;-58
2021/11/26 03:39:38;;;;;;;;;;;23.20;53.10;;;;;;1561969;76;803;-58
2021/11/26 03:41:40;;;;;;;;;;;23.20;53.10;;;;;;1546145;76;744;-58
2021/11/26 03:43:41;;;;;;;;;;;23.20;53.10;;;;;;1555199;76;675;-57
2021/11/26 03:45:43;;;;;;;;;;;23.30;53.10;;;;;;1550625;75;1952;-58
2021/11/26 03:47:45;;;;;;;;;;;23.30;53.10;;;;;;1529906;74;763;-59
2021/11/26 03:49:47;;;;;;;;;;;23.30;53.00;;;;;;1564111;76;748;-58
2021/11/26 03:51:49;;;;;;;;;;;23.30;53.00;;;;;;1547056;74;771;-60
2021/11/26 03:53:51;;;;;;;;;;;23.30;53.00;;;;;;1565951;71;222734;-74
2021/11/26 03:55:53;;;;;;;;;;;23.30;52.90;;;;;;1574264;74;761;-70
2021/11/26 03:57:55;;;;;;;;;;;23.40;52.80;;;;;;1572434;74;659;-72
2021/11/26 03:59:57;;;;;;;;;;;23.40;52.80;;;;;;1551195;74;673;-70
2021/11/26 04:01:58;;;;;;;;;;;23.40;52.90;;;;;;1548999;75;1188;-70
2021/11/26 04:04:01;;;;;;;;;;;23.40;52.80;;;;;;1533431;75;720;-70
2021/11/26 04:06:02;;;;;;;;;;;23.40;52.70;;;;;;1565363;73;224551;-57
2021/11/26 04:08:05;;;;;;;;;;;23.40;52.70;;;;;;1579038;74;795;-57
2021/11/26 04:10:07;;;;;;;;;;;23.50;52.70;;;;;;1593717;74;764;-56
2021/11/26 04:12:10;;;;;;;;;;;23.40;52.50;;;;;;1587949;74;772;-56
2021/11/26 04:14:11;;;;;;;;;;;23.50;52.60;;;;;;1578263;74;697;-56
2021/11/26 04:16:14;;;;;;;;;;;23.50;52.60;;;;;;1583173;74;1114;-56
2021/11/26 04:18:15;;;;;;;;;;;23.50;52.50;;;;;;1578940;74;721;-55
2021/11/26 04:20:18;;;;;;;;;;;23.50;52.50;;;;;;1587385;74;727;-56
2021/11/26 04:22:20;;;;;;;;;;;23.50;52.40;;;;;;1575233;75;691;-57
2021/11/26 04:24:22;;;;;;;;;;;23.50;52.40;;;;;;1582850;74;1938;-57
2021/11/26 04:26:24;;;;;;;;;;;23.50;52.40;;;;;;1578591;74;1152;-56
2021/11/26 04:28:26;;;;;;;;;;;23.50;52.40;;;;;;1591985;74;671;-56
2021/11/26 04:30:28;;;;;;;;;;;23.50;52.40;;;;;;1577372;75;708;-54
2021/11/26 04:32:31;;;;;;;;;;;23.50;52.40;;;;;;1577634;74;717;-56
2021/11/26 04:34:33;;;;;;;;;;;23.40;52.20;;;;;;1577272;74;690;-55
2021/11/26 04:36:35;;;;;;;;;;;23.40;52.30;;;;;;1587504;74;1137;-57
2021/11/26 04:38:37;;;;;;;;;;;23.40;52.30;;;;;;1580226;74;703;-56
2021/11/26 04:40:39;;;;;;;;;;;23.40;52.40;;;;;;1577940;74;655;-56
2021/11/26 04:42:41;;;;;;;;;;;23.40;52.40;;;;;;1571234;74;726;-56
2021/11/26 04:44:43;;;;;;;;;;;23.30;52.50;;;;;;1583077;74;1914;-56
2021/11/26 04:46:44;;;;;;;;;;;23.30;52.60;;;;;;1576795;74;1160;-56
2021/11/26 04:48:47;;;;;;;;;;;23.30;52.70;;;;;;1586643;74;769;-56
2021/11/26 04:50:49;;;;;;;;;;;23.20;52.80;;;;;;1580031;74;658;-56
2021/11/26 04:52:52;;;;;;;;;;;23.20;52.80;;;;;;1590446;74;705;-56
2021/11/26 04:54:54;;;;;;;;;;;23.20;53.00;;;;;;1577804;74;713;-55
2021/11/26 04:56:56;;;;;;;;;;;23.20;52.90;;;;;;1590184;74;1151;-56
2021/11/26 04:58:58;;;;;;;;;;;23.20;52.80;;;;;;1600184;74;829;-55
2021/11/26 05:01:00;;;;;;;;;;;23.30;52.70;;;;;;1583770;74;802;-56
2021/11/26 05:03:02;;;;;;;;;;;23.30;52.60;;;;;;1575497;74;699;-57
2021/11/26 05:05:04;;;;;;;;;;;23.40;52.40;;;;;;1590611;74;1951;-56
2021/11/26 05:07:06;;;;;;;;;;;23.30;52.40;;;;;;1586499;74;1158;-56
2021/11/26 05:09:10;;;;;;;;;;;23.40;52.20;;;;;;1590066;74;684;-56
2021/11/26 05:11:11;;;;;;;;;;;23.40;52.20;;;;;;1589067;74;708;-55
2021/11/26 05:13:13;;;;;;;;;;;23.30;52.40;;;;;;1582771;74;736;-55
2021/11/26 05:15:15;;;;;;;;;;;23.30;52.50;;;;;;1589341;74;676;-56
2021/11/26 05:17:17;;;;;;;;;;;23.30;52.40;;;;;;1585297;74;1102;-56
2021/11/26 05:19:19;;;;;;;;;;;23.40;52.40;;;;;;1590989;74;763;-56
2021/11/26 05:21:21;;;;;;;;;;;23.30;52.40;;;;;;1583384;74;767;-56
2021/11/26 05:23:23;;;;;;;;;;;23.30;52.40;;;;;;1595419;74;779;-56
2021/11/26 05:25:25;;;;;;;;;;;23.30;52.30;;;;;;1578223;74;1937;-56
2021/11/26 05:27:27;;;;;;;;;;;23.40;52.20;;;;;;1589561;74;1041;-56
2021/11/26 05:29:29;;;;;;;;;;;23.50;52.10;;;;;;1579405;74;760;-56
2021/11/26 05:31:35;;;;;;;;;;;23.50;52.10;;;;;;1592199;74;790;-55
2021/11/26 05:33:34;;;;;;;;;;;23.40;51.90;;;;;;1579058;74;1621;-56
2021/11/26 05:35:36;;;;;;;;;;;23.40;51.90;;;;;;1572162;74;1135;-56
2021/11/26 05:37:38;;;;;;;;;;;23.50;52.10;;;;;;1581020;74;722;-57
2021/11/26 05:39:40;;;;;;;;;;;23.40;52.10;;;;;;1579646;74;797;-56
2021/11/26 05:41:42;;;;;;;;;;;23.50;52.10;;;;;;1579793;74;787;-56
2021/11/26 05:43:44;;;;;;;;;;;23.50;52.10;;;;;;1575007;74;732;-57
2021/11/26 05:45:46;;;;;;;;;;;23.50;52.10;;;;;;1591392;74;1898;-57
2021/11/26 05:47:48;;;;;;;;;;;23.50;52.10;;;;;;1585666;74;791;-55
2021/11/26 05:49:49;;;;;;;;;;;23.40;52.00;;;;;;1582910;74;690;-57
2021/11/26 05:51:51;;;;;;;;;;;23.40;52.10;;;;;;1582237;74;785;-56
2021/11/26 05:53:53;;;;;;;;;;;23.30;52.30;;;;;;1579669;74;721;-55
2021/11/26 05:55:59;;;;;;;;;;;23.40;52.20;;;;;;1582594;74;1163;-56
2021/11/26 05:57:59;;;;;;;;;;;23.50;51.90;;;;;;1586715;74;1683;-56
2021/11/26 06:00:01;;;;;;;;;;;23.60;51.70;;;;;;1577736;74;761;-56
2021/11/26 06:02:03;;;;;;;;;;;23.60;51.60;;;;;;1577293;74;734;-57
2021/11/26 06:04:05;;;;;;;;;;;23.70;51.70;;;;;;1571875;74;684;-56
2021/11/26 06:06:07;;;;;;;;;;;23.60;51.50;;;;;;1589488;73;1941;-57
2021/11/26 06:08:09;;;;;;;;;;;23.60;51.50;;;;;;1584796;74;909;-56
2021/11/26 06:10:12;;;;;;;;;;;23.70;51.60;;;;;;1581970;74;855;-55
2021/11/26 06:12:13;;;;;;;;;;;23.70;51.50;;;;;;1582994;74;916;-56
2021/11/26 06:14:15;;;;;;;;;;;23.70;51.50;;;;;;1565046;74;789;-54
2021/11/26 06:16:17;;;;;;;;;;;23.60;51.30;;;;;;1582353;74;1172;-56
2021/11/26 06:18:19;;;;;;;;;;;23.70;51.50;;;;;;1591007;74;767;-55
2021/11/26 06:20:21;;;;;;;;;;;23.70;51.40;;;;;;1565553;74;672;-56
2021/11/26 06:22:23;;;;;;;;;;;23.70;51.30;;;;;;1587833;74;797;-57
2021/11/26 06:24:25;;;;;;;;;;;23.70;51.40;;;;;;1581003;74;673;-56
2021/11/26 06:26:27;;;;;;;;;;;23.70;51.30;;;;;;1591423;74;1945;-57
2021/11/26 06:28:29;;;;;;;;;;;23.70;51.40;;;;;;1582938;74;723;-57
2021/11/26 06:30:31;;;;;;;;;;;23.70;51.40;;;;;;1590265;74;647;-56
2021/11/26 06:32:33;;;;;;;;;;;23.70;51.40;;;;;;1580441;74;744;-57
2021/11/26 06:34:35;;;;;;;;;;;23.70;51.50;;;;;;1578589;74;789;-57
2021/11/26 06:36:37;;;;;;;;;;;23.60;51.70;;;;;;1586033;74;1161;-56
2021/11/26 06:38:39;;;;;;;;;;;23.50;51.90;;;;;;1584188;74;686;-56
2021/11/26 06:40:41;;;;;;;;;;;23.50;51.90;;;;;;1585489;74;769;-57
2021/11/26 06:42:43;;;;;;;;;;;23.60;51.70;;;;;;1585941;74;724;-57
2021/11/26 06:44:45;;;;;;;;;;;23.60;51.50;;;;;;1587563;74;715;-57
2021/11/26 06:46:46;;;;;;;;;;;23.70;51.50;;;;;;1591546;74;1949;-56
2021/11/26 06:48:48;;;;;;;;;;;23.70;51.40;;;;;;1583909;74;784;-56
2021/11/26 06:50:50;;;;;;;;;;;23.70;51.40;;;;;;1575804;74;759;-56
2021/11/26 06:52:52;;;;;;;;;;;23.70;51.50;;;;;;1569145;74;712;-56
2021/11/26 06:54:54;;;;;;;;;;;23.60;51.50;;;;;;1578878;74;774;-56
2021/11/26 06:56:56;;;;;;;;;;;23.50;51.70;;;;;;1571871;74;1149;-57
2021/11/26 06:59:00;;;;;;;;;;;23.50;51.40;;;;;;1577060;74;786;-58
2021/11/26 07:01:01;;;;;;;;;;;23.60;51.20;;;;;;1579603;74;1681;-57
2021/11/26 07:03:03;;;;;;;;;;;23.50;51.10;;;;;;1581842;74;793;-57
2021/11/26 07:05:06;;;;;;;;;;;23.50;51.00;;;;;;1578960;74;719;-56
2021/11/26 07:07:07;;;;;;;;;;;23.50;51.00;;;;;;1582044;74;1934;-57
2021/11/26 07:09:09;;;;;;;;;;;23.50;51.00;;;;;;1582940;74;751;-57
2021/11/26 07:11:11;;;;;;;;;;;23.50;51.00;;;;;;1582886;74;723;-57
2021/11/26 07:13:13;;;;;;;;;;;23.50;51.00;;;;;;1571130;75;687;-57
2021/11/26 07:15:16;;;;;;;;;;;23.40;50.80;;;;;;1576964;74;804;-55
2021/11/26 07:17:18;;;;;;;;;;;23.50;51.00;;;;;;1579700;74;1137;-57
2021/11/26 07:19:20;;;;;;;;;;;23.30;50.80;;;;;;1582441;74;676;-57
2021/11/26 07:21:22;;;;;;;;;;;23.30;50.80;;;;;;1564595;74;671;-57
2021/11/26 07:23:24;;;;;;;;;;;23.30;50.80;;;;;;1577805;74;761;-56
2021/11/26 07:25:26;;;;;;;;;;;23.40;50.80;;;;;;1582040;74;1939;-56
2021/11/26 07:27:28;;;;;;;;;;;23.30;50.80;;;;;;1593647;74;1135;-57
2021/11/26 07:29:30;;;;;;;;;;;23.40;50.70;;;;;;1581993;74;682;-56
2021/11/26 07:31:32;;;;;;;;;;;23.40;50.80;;;;;;1578128;74;729;-57
2021/11/26 07:33:33;;;;;;;;;;;23.30;50.70;;;;;;1577214;74;772;-56
2021/11/26 07:35:35;;;;;;;;;;;23.30;50.70;;;;;;1584759;74;1162;-57
2021/11/26 07:37:37;;;;;;;;;;;23.30;50.70;;;;;;1579776;74;775;-57
2021/11/26 07:39:40;;;;;;;;;;;23.30;50.70;;;;;;1582507;74;809;-57
2021/11/26 07:41:42;;;;;;;;;;;23.30;50.70;;;;;;1574831;74;734;-58
2021/11/26 07:43:44;;;;;;;;;;;23.30;50.70;;;;;;1579125;74;670;-56
2021/11/26 07:45:46;;;;;;;;;;;23.30;50.70;;;;;;1588209;74;1919;-56
2021/11/26 07:47:50;;;;;;;;;;;23.20;50.60;;;;;;1591506;74;724;-56
2021/11/26 07:49:53;;;;;;;;;;;23.30;50.70;;;;;;1581752;74;718;-57
2021/11/26 07:51:56;;;;;;;;;;;23.30;50.70;;;;;;1586095;74;822;-57
2021/11/26 07:53:57;;;;;;;;;;;23.30;50.70;;;;;;1580864;74;735;-56
2021/11/26 07:55:59;;;;;;;;;;;23.30;50.60;;;;;;1573404;74;1142;-57
2021/11/26 07:58:02;;;;;;;;;;;23.30;50.60;;;;;;1584107;74;801;-58
2021/11/26 08:00:05;;;;;;;;;;;23.30;50.60;;;;;;1577458;74;710;-57
2021/11/26 08:02:07;;;;;;;;;;;23.20;50.50;;;;;;1579558;74;807;-56
2021/11/26 08:04:09;;;;;;;;;;;23.20;50.50;;;;;;1575766;74;734;-57
2021/11/26 08:06:11;;;;;;;;;;;23.30;50.50;;;;;;1580564;74;1927;-57
2021/11/26 08:08:13;;;;;;;;;;;23.20;50.30;;;;;;1560380;75;1121;-58
2021/11/26 08:10:15;;;;;;;;;;;23.30;50.50;;;;;;1578235;74;690;-57
2021/11/26 08:12:17;;;;;;;;;;;23.20;50.40;;;;;;1573179;74;704;-57
2021/11/26 08:14:19;;;;;;;;;;;23.20;50.40;;;;;;1576408;74;771;-57
2021/11/26 08:16:22;;;;;;;;;;;23.20;50.50;;;;;;1581717;74;1206;-57
2021/11/26 08:18:24;;;;;;;;;;;23.20;50.50;;;;;;1542345;75;731;-57
2021/11/26 08:20:26;;;;;;;;;;;23.20;50.40;;;;;;1519447;77;732;-58
2021/11/26 08:22:28;;;;;;;;;;;23.20;50.40;;;;;;1558876;75;679;-57
2021/11/26 08:24:30;;;;;;;;;;;23.20;50.40;;;;;;1551253;75;717;-57
2021/11/26 08:26:31;;;;;;;;;;;23.10;50.40;;;;;;1554455;75;1935;-57
2021/11/26 08:28:33;;;;;;;;;;;23.20;50.20;;;;;;1554777;75;712;-57
2021/11/26 08:30:35;;;;;;;;;;;23.10;49.30;;;;;;1551840;75;730;-57
2021/11/26 08:32:37;;;;;;;;;;;23.10;48.30;;;;;;1553512;75;803;-57
2021/11/26 08:34:39;;;;;;;;;;;23.00;47.10;;;;;;1548934;75;819;-57
2021/11/26 08:36:41;;;;;;;;;;;23.00;46.40;;;;;;1551208;75;1201;-57
2021/11/26 08:38:43;;;;;;;;;;;23.00;45.90;;;;;;1550998;75;764;-58
2021/11/26 08:40:45;;;;;;;;;;;23.00;45.30;;;;;;1550518;75;758;-56
2021/11/26 08:42:47;;;;;;;;;;;22.90;44.90;;;;;;1547152;76;740;-57
2021/11/26 08:44:49;;;;;;;;;;;22.90;44.40;;;;;;1553939;75;716;-57
2021/11/26 08:46:51;;;;;;;;;;;22.90;44.40;;;;;;1556465;75;1947;-57
2021/11/26 08:48:53;;;;;;;;;;;22.80;44.00;;;;;;1554636;75;831;-57
2021/11/26 08:50:54;;;;;;;;;;;22.80;43.80;;;;;;1551264;75;773;-58
2021/11/26 08:52:56;;;;;;;;;;;22.80;43.80;;;;;;1556162;75;814;-57
2021/11/26 08:54:58;;;;;;;;;;;22.80;43.80;;;;;;1556715;75;743;-57
2021/11/26 08:57:00;;;;;;;;;;;22.70;43.60;;;;;;1553372;75;1164;-58
2021/11/26 08:59:02;;;;;;;;;;;22.80;43.50;;;;;;1549469;75;840;-57
2021/11/26 09:01:04;;;;;;;;;;;22.70;43.30;;;;;;1550301;75;679;-57
2021/11/26 09:03:06;;;;;;;;;;;22.80;44.40;;;;;;1555670;76;800;-57
2021/11/26 09:05:08;;;;;;;;;;;22.80;44.80;;;;;;1553250;75;676;-56
2021/11/26 09:07:10;;;;;;;;;;;22.60;45.00;;;;;;1556430;75;1933;-56
2021/11/26 09:09:12;;;;;;;;;;;22.60;45.40;;;;;;1555296;75;823;-55
2021/11/26 09:11:16;;;;;;;;;;;22.50;45.70;;;;;;1556416;75;767;-58
2021/11/26 09:13:17;;;;;;;;;;;22.40;46.10;;;;;;1549157;75;2062;-55
2021/11/26 09:15:19;;;;;;;;;;;22.40;46.50;;;;;;1555721;76;716;-55
2021/11/26 09:17:21;;;;;;;;;;;22.40;46.70;;;;;;1555804;75;1193;-57
2021/11/26 09:19:23;;;;;;;;;;;22.50;47.10;;;;;;1555943;75;787;-56
2021/11/26 09:21:25;;;;;;;;;;;22.40;47.20;;;;;;1552142;75;688;-56
2021/11/26 09:23:27;;;;;;;;;;;22.50;47.40;;;;;;1556205;75;732;-56
2021/11/26 09:25:29;;;;;;;;;;;22.40;47.60;;;;;;1554966;75;796;-56
2021/11/26 09:27:31;;;;;;;;;;;22.40;47.70;;;;;;1556723;75;1985;-57
2021/11/26 09:29:32;;;;;;;;;;;22.50;48.00;;;;;;1555052;75;734;-57
2021/11/26 09:31:34;;;;;;;;;;;22.50;48.10;;;;;;1555405;75;739;-56
2021/11/26 09:33:36;;;;;;;;;;;22.50;48.30;;;;;;1555608;75;886;-56
2021/11/26 09:35:38;;;;;;;;;;;22.40;48.30;;;;;;1554456;75;1141;-57
2021/11/26 09:37:40;;;;;;;;;;;22.40;48.40;;;;;;1555896;75;711;-57
2021/11/26 09:39:42;;;;;;;;;;;22.40;48.50;;;;;;1558470;75;688;-55
2021/11/26 09:41:45;;;;;;;;;;;22.40;48.60;;;;;;1556558;75;727;-56
2021/11/26 09:43:49;;;;;;;;;;;22.40;48.60;;;;;;1551792;75;777;-57
2021/11/26 09:45:51;;;;;;;;;;;22.50;48.80;;;;;;1555256;75;1177;-56
2021/11/26 09:47:53;;;;;;;;;;;22.50;48.90;;;;;;1561585;75;1940;-56
2021/11/26 09:49:55;;;;;;;;;;;22.50;48.90;;;;;;1547234;75;716;-55
2021/11/26 09:51:57;;;;;;;;;;;22.50;48.90;;;;;;1547133;75;687;-56
2021/11/26 09:53:59;;;;;;;;;;;22.50;48.90;;;;;;1543090;73;3782;-55
2021/11/26 09:56:03;;;;;;;;;;;22.50;49.10;;;;;;1527052;77;1162;-56
2021/11/26 09:58:04;;;;;;;;;;;22.50;49.10;;;;;;1508889;78;736;-57
2021/11/26 10:00:08;;;;;;;;;;;22.40;48.90;;;;;;1507386;78;713;-56
2021/11/26 10:02:10;;;;;;;;;;;22.50;49.10;;;;;;1503898;78;691;-57
2021/11/26 10:04:16;;;;;;;;;;;22.50;49.20;;;;;;1508079;78;735;-56
2021/11/26 10:06:18;;;;;;;;;;;22.60;49.10;;;;;;1470412;80;1161;-57
2021/11/26 10:08:23;;;;;;;;;;;22.60;49.00;;;;;;1466836;80;1940;-57
2021/11/26 10:10:26;;;;;;;;;;;22.70;49.20;;;;;;1464928;80;779;-59
2021/11/26 10:12:28;;;;;;;;;;;22.70;49.00;;;;;;1465131;80;783;-58
2021/11/26 10:14:40;;;;;;;;;;;22.70;48.90;;;;;;1479698;80;741;-59
2021/11/26 10:16:43;;;;;;;;;;;22.80;48.60;;;;;;1506167;78;1076;-61
2021/11/26 10:18:48;;;;;;;;;;;22.90;48.50;;;;;;1508806;78;802;-59
2021/11/26 10:21:04;;;;;;;;;;;23.00;48.20;;;;;;1491854;78;773;-59
2021/11/26 10:23:07;;;;;;;;;;;23.10;47.90;;;;;;1500515;78;786;-59
2021/11/26 10:25:11;;;;;;;;;;;23.20;47.60;;;;;;1492184;78;1909;-59
2021/11/26 10:27:13;;;;;;;;;;;23.30;47.50;;;;;;1497426;78;1970;-58
2021/11/26 10:29:15;;;;;;;;;;;23.30;47.50;;;;;;1496938;78;741;-58
2021/11/26 10:31:18;;;;;;;;;;;23.30;47.40;;;;;;1500622;78;719;-60
2021/11/26 10:33:25;;;;;;;;;;;23.30;47.30;;;;;;1498246;78;898;-59
2021/11/26 10:35:28;;;;;;;;;;;23.40;47.40;;;;;;1495421;78;730;-58
2021/11/26 10:37:29;;;;;;;;;;;23.20;47.40;;;;;;1497598;78;1091;-58
2021/11/26 10:39:33;;;;;;;;;;;23.30;47.60;;;;;;1500500;78;808;-58
2021/11/26 10:41:35;;;;;;;;;;;23.30;47.50;;;;;;1491015;78;615;-60
2021/11/26 10:43:52;;;;;;;;;;;23.30;47.60;;;;;;1494645;78;785;-60
2021/11/26 10:46:14;;;;;;;;;;;23.30;47.60;;;;;;1495036;78;1843;-60
2021/11/26 10:48:21;;;;;;;;;;;23.20;47.50;;;;;;1493353;78;1919;-59
2021/11/26 10:52:53;;;;;;;;;;;23.20;47.70;;;;;;1499371;78;1614;-60
2021/11/26 10:57:26;;;;;;;;;;;23.20;47.60;;;;;;1498415;78;1641;-61
2021/11/26 10:59:10;;;;;;;;;;;23.20;47.50;;;;;;1493930;78;1821;-61
2021/11/26 11:01:15;;;;;;;;;;;23.20;47.50;;;;;;1501185;78;712;-59
2021/11/26 11:03:19;;;;;;;;;;;23.20;47.40;;;;;;1513949;78;776;-58
2021/11/26 11:05:25;;;;;;;;;;;23.10;47.40;;;;;;1453008;79;1719;-61
2021/11/26 11:07:29;;;;;;;;;;;23.20;47.50;;;;;;1460150;80;1954;-61
2021/11/26 11:09:44;;;;;;;;;;;23.20;47.50;;;;;;1510769;78;1863;-60
2021/11/26 11:11:50;;;;;;;;;;;23.20;47.50;;;;;;1506855;78;688;-60
2021/11/26 11:13:52;;;;;;;;;;;23.10;47.60;;;;;;1516495;78;630;-59
2021/11/26 11:15:55;;;;;;;;;;;23.20;47.60;;;;;;1504318;78;1150;-58
2021/11/26 11:17:57;;;;;;;;;;;23.20;47.70;;;;;;1527374;77;1147;-60
2021/11/26 11:20:04;;;;;;;;;;;23.20;47.70;;;;;;1552715;76;742;-60
2021/11/26 11:22:06;;;;;;;;;;;23.20;47.70;;;;;;1507347;78;1837;-60
2021/11/26 11:24:08;;;;;;;;;;;23.20;47.70;;;;;;1476892;80;674;-61
2021/11/26 11:26:10;;;;;;;;;;;23.20;47.70;;;;;;1470393;80;1196;-59
2021/11/26 11:28:14;;;;;;;;;;;23.20;47.80;;;;;;1462638;80;1924;-60
2021/11/26 11:30:15;;;;;;;;;;;23.20;47.80;;;;;;1471788;80;1288;-61
2021/11/26 11:32:18;;;;;;;;;;;23.20;47.80;;;;;;1473481;80;724;-60
2021/11/26 11:34:21;;;;;;;;;;;23.20;47.80;;;;;;1463223;80;801;-60
2021/11/26 11:36:23;;;;;;;;;;;23.20;47.80;;;;;;1474634;79;1142;-58
2021/11/26 11:38:25;;;;;;;;;;;23.20;47.80;;;;;;1470184;80;824;-58
2021/11/26 11:40:29;;;;;;;;;;;23.20;47.80;;;;;;1515743;78;730;-59
2021/11/26 11:42:32;;;;;;;;;;;23.20;47.80;;;;;;1505307;77;1005;-59
2021/11/26 11:44:35;;;;;;;;;;;23.20;47.80;;;;;;1499899;78;1835;-59
2021/11/26 11:46:37;;;;;;;;;;;23.20;47.80;;;;;;1512553;77;1149;-60
2021/11/26 11:48:40;;;;;;;;;;;23.20;47.90;;;;;;1488093;79;1958;-59
2021/11/26 11:50:43;;;;;;;;;;;23.20;47.90;;;;;;1503671;78;736;-57
2021/11/26 11:52:47;;;;;;;;;;;23.20;48.20;;;;;;1506244;78;734;-58
2021/11/26 11:54:49;;;;;;;;;;;23.10;48.40;;;;;;1511615;78;784;-60
2021/11/26 11:56:52;;;;;;;;;;;23.10;48.70;;;;;;1489167;79;1099;-59
2021/11/26 11:58:54;;;;;;;;;;;23.10;49.00;;;;;;1513583;78;773;-59
2021/11/26 12:00:56;;;;;;;;;;;23.10;49.00;;;;;;1473547;80;805;-59
2021/11/26 12:03:00;;;;;;;;;;;23.20;48.80;;;;;;1469148;80;738;-58
2021/11/26 12:05:02;;;;;;;;;;;23.30;48.70;;;;;;1505676;78;1963;-60
2021/11/26 12:07:03;;;;;;;;;;;23.30;48.70;;;;;;1499012;78;1945;-61
2021/11/26 12:09:05;;;;;;;;;;;23.30;48.60;;;;;;1505161;79;683;-60
2021/11/26 12:11:07;;;;;;;;;;;23.30;48.60;;;;;;1492366;79;661;-58
2021/11/26 12:13:11;;;;;;;;;;;23.30;48.50;;;;;;1483167;80;723;-59
2021/11/26 12:15:14;;;;;;;;;;;23.30;48.40;;;;;;1495317;79;1905;-59